createdAt,value
2018-05-16T00:02:16.691Z,21.40
2018-05-16T00:04:44.232Z,22.27
2018-05-16T00:07:11.799Z,23.20
2018-05-16T00:09:39.357Z,23.93
2018-05-16T00:12:06.872Z,22.63
2018-05-16T00:14:34.486Z,26.13
2018-05-16T00:17:02.050Z,25.10
2018-05-16T00:19:29.596Z,27.43
2018-05-16T00:21:57.107Z,27.87
2018-05-16T00:24:24.624Z,28.33
2018-05-16T00:26:52.178Z,28.00
2018-05-16T00:29:19.679Z,26.77
2018-05-16T00:31:47.188Z,28.57
2018-05-16T00:34:14.755Z,29.87
2018-05-16T00:36:42.264Z,30.23
2018-05-16T00:39:09.795Z,30.67
2018-05-16T00:41:37.331Z,30.17
2018-05-16T00:44:04.895Z,31.70
2018-05-16T00:46:32.450Z,31.97
2018-05-16T00:49:00.019Z,31.23
2018-05-16T00:51:32.416Z,31.90
2018-05-16T00:53:59.937Z,30.93
2018-05-16T00:56:27.532Z,31.77
2018-05-16T00:58:55.036Z,31.57
2018-05-16T01:01:22.528Z,30.23
2018-05-16T01:03:50.080Z,31.63
2018-05-16T01:06:17.619Z,31.87
2018-05-16T01:08:45.131Z,31.07
2018-05-16T01:11:12.687Z,31.10
2018-05-16T01:13:40.201Z,32.77
2018-05-16T01:16:07.739Z,31.80
2018-05-16T01:18:35.251Z,28.63
2018-05-16T01:21:02.814Z,30.97
2018-05-16T01:23:30.337Z,29.13
2018-05-16T01:25:57.834Z,29.90
2018-05-16T01:28:25.414Z,31.13
2018-05-16T01:30:52.951Z,28.90
2018-05-16T01:33:20.440Z,28.63
2018-05-16T01:35:48.021Z,27.97
2018-05-16T01:38:15.557Z,26.90
2018-05-16T01:40:43.063Z,26.60
2018-05-16T01:43:10.589Z,28.20
2018-05-16T01:45:38.184Z,25.20
2018-05-16T01:48:05.749Z,25.17
2018-05-16T01:50:33.339Z,25.87
2018-05-16T01:53:00.915Z,27.43
2018-05-16T01:55:28.464Z,26.87
2018-05-16T01:57:56.028Z,25.50
2018-05-16T02:00:23.639Z,26.13
2018-05-16T02:02:51.231Z,26.30
2018-05-16T02:05:18.755Z,25.60
2018-05-16T02:07:46.268Z,24.57
2018-05-16T02:10:13.836Z,23.50
2018-05-16T02:12:41.438Z,23.50
2018-05-16T02:15:08.991Z,22.97
2018-05-16T02:17:36.492Z,23.47
2018-05-16T02:20:04.042Z,23.87
2018-05-16T02:22:31.566Z,23.57
2018-05-16T02:24:59.083Z,23.73
2018-05-16T02:27:26.639Z,22.20
2018-05-16T02:29:54.173Z,23.03
2018-05-16T02:32:21.693Z,23.87
2018-05-16T02:34:49.220Z,25.50
2018-05-16T02:37:16.832Z,24.00
2018-05-16T02:39:44.323Z,24.47
2018-05-16T02:42:11.873Z,25.90
2018-05-16T02:44:39.410Z,26.30
2018-05-16T02:47:06.912Z,25.40
2018-05-16T02:49:34.428Z,25.77
2018-05-16T02:52:01.996Z,26.73
2018-05-16T02:54:29.544Z,25.37
2018-05-16T02:56:57.081Z,26.57
2018-05-16T02:59:24.594Z,27.13
2018-05-16T03:01:52.149Z,26.40
2018-05-16T03:04:19.638Z,26.33
2018-05-16T03:06:47.171Z,27.77
2018-05-16T03:09:14.701Z,29.10
2018-05-16T03:11:42.211Z,27.77
2018-05-16T03:14:09.735Z,27.10
2018-05-16T03:16:37.310Z,27.97
2018-05-16T03:19:04.910Z,28.23
2018-05-16T03:21:32.439Z,30.03
2018-05-16T03:23:59.996Z,29.43
2018-05-16T03:26:27.545Z,29.10
2018-05-16T03:28:55.124Z,30.93
2018-05-16T03:31:22.718Z,30.60
2018-05-16T03:33:50.227Z,30.60
2018-05-16T03:36:17.871Z,30.60
2018-05-16T03:38:45.415Z,30.90
2018-05-16T03:41:12.957Z,32.07
2018-05-16T03:43:40.517Z,30.90
2018-05-16T03:46:08.040Z,29.47
2018-05-16T03:48:35.544Z,29.93
2018-05-16T03:51:03.116Z,30.67
2018-05-16T03:53:30.674Z,28.47
2018-05-16T03:55:58.237Z,29.50
2018-05-16T03:58:37.464Z,27.50
2018-05-16T04:01:16.799Z,27.20
2018-05-16T04:03:56.019Z,27.03
2018-05-16T04:06:23.508Z,26.63
2018-05-16T04:08:51.160Z,26.07
2018-05-16T04:11:18.788Z,26.27
2018-05-16T04:13:46.365Z,26.60
2018-05-16T04:16:13.900Z,26.87
2018-05-16T04:18:41.471Z,25.60
2018-05-16T04:21:08.964Z,26.13
2018-05-16T04:23:36.583Z,25.90
2018-05-16T04:26:04.155Z,26.17
2018-05-16T04:28:32.828Z,25.70
2018-05-16T04:31:00.403Z,26.07
2018-05-16T04:33:27.951Z,25.27
2018-05-16T04:35:55.446Z,25.67
2018-05-16T04:38:22.959Z,26.90
2018-05-16T04:40:50.514Z,27.40
2018-05-16T04:43:18.014Z,26.90
2018-05-16T04:45:45.545Z,26.70
2018-05-16T04:48:13.111Z,27.70
2018-05-16T04:50:40.656Z,27.97
2018-05-16T04:53:08.248Z,27.73
2018-05-16T04:55:35.754Z,27.30
2018-05-16T04:58:03.315Z,28.40
2018-05-16T05:00:30.816Z,28.77
2018-05-16T05:02:58.340Z,27.60
2018-05-16T05:05:25.902Z,28.17
2018-05-16T05:07:53.410Z,27.40
2018-05-16T05:10:20.919Z,28.13
2018-05-16T05:12:48.451Z,27.97
2018-05-16T05:15:15.961Z,27.57
2018-05-16T05:17:43.538Z,27.30
2018-05-16T05:20:11.055Z,29.17
2018-05-16T05:22:38.614Z,28.30
2018-05-16T05:25:06.107Z,28.17
2018-05-16T05:27:33.630Z,28.00
2018-05-16T05:30:01.168Z,29.30
2018-05-16T05:32:28.667Z,27.27
2018-05-16T05:34:56.303Z,28.03
2018-05-16T05:37:23.845Z,27.57
2018-05-16T05:39:51.377Z,27.60
2018-05-16T05:42:18.917Z,26.93
2018-05-16T05:44:46.433Z,26.63
2018-05-16T05:47:13.935Z,26.43
2018-05-16T05:49:41.448Z,27.00
2018-05-16T05:52:08.980Z,29.97
2018-05-16T05:54:36.529Z,27.93
2018-05-16T05:57:04.047Z,29.03
2018-05-16T05:59:31.620Z,28.10
2018-05-16T06:01:59.164Z,27.17
2018-05-16T06:04:26.744Z,28.40
2018-05-16T06:06:55.213Z,28.27
2018-05-16T06:09:22.873Z,27.40
2018-05-16T06:11:50.397Z,26.63
2018-05-16T06:14:17.944Z,27.80
2018-05-16T06:16:45.466Z,27.40
2018-05-16T06:19:13.036Z,27.13
2018-05-16T06:21:40.564Z,26.60
2018-05-16T06:24:08.090Z,28.57
2018-05-16T06:26:35.809Z,27.23
2018-05-16T06:29:03.327Z,27.60
2018-05-16T06:31:30.833Z,28.50
2018-05-16T06:33:58.859Z,25.97
2018-05-16T06:36:26.613Z,25.80
2018-05-16T06:38:54.157Z,25.50
2018-05-16T06:41:21.729Z,27.60
2018-05-16T06:43:49.287Z,26.10
2018-05-16T06:46:16.892Z,26.53
2018-05-16T06:48:44.468Z,26.77
2018-05-16T06:51:12.040Z,25.50
2018-05-16T06:53:39.614Z,25.13
2018-05-16T06:56:07.237Z,25.70
2018-05-16T06:58:34.794Z,25.70
2018-05-16T07:01:02.371Z,24.60
2018-05-16T07:03:29.963Z,24.60
2018-05-16T07:05:57.497Z,25.70
2018-05-16T07:08:25.011Z,26.13
2018-05-16T07:10:52.600Z,25.57
2018-05-16T07:13:20.240Z,25.13
2018-05-16T07:15:47.801Z,25.13
2018-05-16T07:18:15.314Z,26.27
2018-05-16T07:20:42.947Z,26.37
2018-05-16T07:23:10.494Z,27.20
2018-05-16T07:25:38.037Z,27.10
2018-05-16T07:28:05.609Z,26.53
2018-05-16T07:30:33.141Z,27.20
2018-05-16T07:33:01.329Z,27.60
2018-05-16T07:35:28.902Z,27.33
2018-05-16T07:37:56.502Z,27.93
2018-05-16T07:40:24.176Z,28.90
2018-05-16T07:42:51.685Z,28.33
2018-05-16T07:45:19.283Z,30.03
2018-05-16T07:47:46.836Z,29.63
2018-05-16T07:50:14.426Z,28.70
2018-05-16T07:52:42.002Z,28.50
2018-05-16T07:55:09.660Z,28.93
2018-05-16T07:57:37.253Z,29.27
2018-05-16T08:00:05.697Z,30.43
2018-05-16T08:02:33.353Z,30.87
2018-05-16T08:05:01.472Z,29.93
2018-05-16T08:07:29.021Z,30.43
2018-05-16T08:09:56.909Z,31.90
2018-05-16T08:12:24.518Z,29.93
2018-05-16T08:14:55.647Z,29.47
2018-05-16T08:17:25.506Z,29.63
2018-05-16T08:19:54.455Z,31.03
2018-05-16T08:22:23.285Z,30.77
2018-05-16T08:24:51.415Z,30.23
2018-05-16T08:27:21.043Z,31.37
2018-05-16T08:29:49.119Z,31.97
2018-05-16T08:32:17.707Z,32.90
2018-05-16T08:34:46.693Z,31.10
2018-05-16T08:37:14.492Z,33.67
2018-05-16T08:39:43.437Z,31.13
2018-05-16T08:42:11.823Z,33.13
2018-05-16T08:44:39.388Z,32.47
2018-05-16T08:47:06.998Z,33.97
2018-05-16T08:49:34.595Z,33.03
2018-05-16T08:52:02.091Z,33.63
2018-05-16T08:54:29.691Z,32.13
2018-05-16T08:56:57.289Z,33.30
2018-05-16T08:59:24.817Z,32.80
2018-05-16T09:01:52.366Z,32.33
2018-05-16T09:04:19.880Z,31.87
2018-05-16T09:06:47.536Z,32.70
2018-05-16T09:09:15.079Z,32.80
2018-05-16T09:11:42.626Z,32.17
2018-05-16T09:14:10.988Z,31.67
2018-05-16T09:16:38.545Z,31.23
2018-05-16T09:19:06.091Z,32.63
2018-05-16T09:21:33.620Z,31.73
2018-05-16T09:24:01.136Z,30.63
2018-05-16T09:26:28.680Z,31.43
2018-05-16T09:28:56.253Z,31.03
2018-05-16T09:31:23.899Z,30.70
2018-05-16T09:33:51.816Z,33.10
2018-05-16T09:36:19.372Z,33.10
2018-05-16T09:38:47.856Z,32.70
2018-05-16T09:41:15.973Z,33.67
2018-05-16T09:43:43.513Z,32.33
2018-05-16T09:46:11.089Z,31.37
2018-05-16T09:48:38.646Z,33.53
2018-05-16T09:51:06.218Z,33.83
2018-05-16T09:53:33.775Z,33.00
2018-05-16T09:56:01.285Z,32.63
2018-05-16T09:58:28.876Z,34.40
2018-05-16T10:00:56.437Z,33.97
2018-05-16T10:03:24.626Z,35.50
2018-05-16T10:05:52.908Z,36.37
2018-05-16T10:08:20.484Z,34.83
2018-05-16T10:10:48.102Z,35.00
2018-05-16T10:13:15.626Z,36.07
2018-05-16T10:15:43.243Z,36.43
2018-05-16T10:18:10.770Z,36.47
2018-05-16T10:20:38.290Z,37.03
2018-05-16T10:23:05.902Z,36.00
2018-05-16T10:25:34.440Z,37.33
2018-05-16T10:28:02.022Z,38.77
2018-05-16T10:30:29.555Z,40.03
2018-05-16T10:32:57.184Z,39.43
2018-05-16T10:35:24.740Z,41.80
2018-05-16T10:37:52.283Z,38.57
2018-05-16T10:40:19.895Z,38.60
2018-05-16T10:42:47.486Z,39.93
2018-05-16T10:45:15.169Z,40.77
2018-05-16T10:47:42.671Z,40.13
2018-05-16T10:50:10.183Z,41.97
2018-05-16T10:52:38.438Z,41.73
2018-05-16T10:55:06.574Z,41.73
2018-05-16T10:57:34.127Z,41.23
2018-05-16T11:00:01.731Z,40.83
2018-05-16T11:02:29.240Z,41.47
2018-05-16T11:04:56.794Z,40.37
2018-05-16T11:07:24.398Z,41.47
2018-05-16T11:09:51.957Z,40.80
2018-05-16T11:12:19.468Z,41.13
2018-05-16T11:14:47.075Z,41.70
2018-05-16T11:17:14.662Z,40.07
2018-05-16T11:19:42.548Z,41.27
2018-05-16T11:22:10.569Z,39.97
2018-05-16T11:24:38.851Z,39.50
2018-05-16T11:27:06.412Z,38.57
2018-05-16T11:29:34.095Z,39.73
2018-05-16T11:32:01.873Z,37.87
2018-05-16T11:34:30.438Z,34.67
2018-05-16T11:36:58.693Z,34.47
2018-05-16T11:39:26.235Z,34.07
2018-05-16T11:41:54.439Z,32.23
2018-05-16T11:44:21.991Z,32.10
2018-05-16T11:46:49.559Z,31.63
2018-05-16T11:49:17.049Z,31.00
2018-05-16T11:51:45.410Z,28.80
2018-05-16T11:54:14.620Z,28.03
2018-05-16T11:56:42.187Z,26.47
2018-05-16T11:59:09.774Z,27.07
2018-05-16T12:01:37.308Z,25.97
2018-05-16T12:04:05.449Z,26.27
2018-05-16T12:06:33.062Z,26.87
2018-05-16T12:09:00.651Z,25.17
2018-05-16T12:11:28.198Z,24.17
2018-05-16T12:13:57.293Z,24.90
2018-05-16T12:16:24.835Z,24.10
2018-05-16T12:18:53.313Z,22.00
2018-05-16T12:21:21.015Z,21.43
2018-05-16T12:23:48.636Z,21.03
2018-05-16T12:26:16.225Z,21.27
2018-05-16T12:28:44.715Z,20.80
2018-05-16T12:31:12.271Z,18.43
2018-05-16T12:33:40.437Z,18.50
2018-05-16T12:36:08.532Z,18.37
2018-05-16T12:38:36.069Z,18.47
2018-05-16T12:41:04.343Z,19.20
2018-05-16T12:43:31.927Z,19.27
2018-05-16T12:45:59.500Z,18.67
2018-05-16T12:48:27.009Z,20.50
2018-05-16T12:50:55.190Z,19.10
2018-05-16T12:53:24.147Z,20.53
2018-05-16T12:55:51.677Z,20.10
2018-05-16T12:58:19.295Z,20.80
2018-05-16T13:00:46.884Z,21.13
2018-05-16T13:03:14.494Z,20.13
2018-05-16T13:05:42.045Z,21.50
2018-05-16T13:08:09.707Z,20.17
2018-05-16T13:10:38.235Z,20.30
2018-05-16T13:13:05.901Z,18.80
2018-05-16T13:15:33.400Z,20.17
2018-05-16T13:18:01.332Z,19.83
2018-05-16T13:20:29.484Z,18.90
2018-05-16T13:22:57.044Z,18.07
2018-05-16T13:25:24.600Z,17.47
2018-05-16T13:27:52.199Z,18.93
2018-05-16T13:30:20.581Z,20.07
2018-05-16T13:32:49.031Z,18.70
2018-05-16T13:35:16.653Z,18.50
2018-05-16T13:37:44.149Z,17.23
2018-05-16T13:40:11.688Z,16.93
2018-05-16T13:42:39.288Z,13.57
2018-05-16T13:45:06.788Z,10.80
2018-05-16T13:47:34.448Z,11.10
2018-05-16T13:50:02.564Z,10.57
2018-05-16T13:52:30.765Z,8.67
2018-05-16T13:54:58.378Z,8.87
2018-05-16T13:57:25.899Z,8.80
2018-05-16T13:59:53.443Z,9.63
2018-05-16T14:02:21.061Z,9.63
2018-05-16T14:04:48.657Z,10.43
2018-05-16T14:07:16.182Z,10.10
2018-05-16T14:09:43.691Z,9.77
2018-05-16T14:12:11.304Z,11.80
2018-05-16T14:14:39.328Z,11.90
2018-05-16T14:17:06.861Z,13.03
2018-05-16T14:19:34.391Z,13.77
2018-05-16T14:22:01.932Z,14.33
2018-05-16T14:24:29.508Z,15.03
2018-05-16T14:26:57.721Z,15.90
2018-05-16T14:29:25.270Z,15.80
2018-05-16T14:31:52.849Z,15.20
2018-05-16T14:34:20.531Z,14.97
2018-05-16T14:36:48.074Z,15.47
2018-05-16T14:39:15.593Z,16.50
2018-05-16T14:41:43.121Z,17.53
2018-05-16T14:44:10.709Z,16.70
2018-05-16T14:46:38.292Z,16.17
2018-05-16T14:49:05.985Z,17.43
2018-05-16T14:51:33.515Z,17.03
2018-05-16T14:54:01.070Z,18.30
2018-05-16T14:56:29.086Z,17.13
2018-05-16T14:58:56.606Z,18.37
2018-05-16T15:01:24.173Z,18.70
2018-05-16T15:03:51.714Z,17.63
2018-05-16T15:06:19.859Z,17.17
2018-05-16T15:08:47.410Z,19.77
2018-05-16T15:11:14.887Z,18.17
2018-05-16T15:13:43.078Z,19.93
2018-05-16T15:16:10.650Z,18.50
2018-05-16T15:18:38.198Z,17.57
2018-05-16T15:21:05.771Z,17.70
2018-05-16T15:23:33.347Z,18.27
2018-05-16T15:26:00.876Z,17.60
2018-05-16T15:28:36.928Z,17.80
2018-05-16T15:31:04.484Z,17.23
2018-05-16T15:33:31.994Z,16.77
2018-05-16T15:36:00.624Z,16.97
2018-05-16T15:38:28.507Z,15.50
2018-05-16T15:40:56.604Z,16.57
2018-05-16T15:43:24.110Z,16.20
2018-05-16T15:45:55.121Z,15.70
2018-05-16T15:48:26.490Z,15.87
2018-05-16T15:50:54.693Z,14.33
2018-05-16T15:53:22.258Z,15.13
2018-05-16T15:55:49.792Z,15.37
2018-05-16T15:58:17.911Z,15.27
2018-05-16T16:00:45.921Z,15.77
2018-05-16T16:03:13.503Z,16.60
2018-05-16T16:05:41.777Z,15.97
2018-05-16T16:08:09.422Z,16.80
2018-05-16T16:10:37.183Z,15.83
2018-05-16T16:13:04.737Z,17.23
2018-05-16T16:15:32.323Z,16.07
2018-05-16T16:18:00.074Z,16.23
2018-05-16T16:20:27.680Z,17.50
2018-05-16T16:22:55.320Z,17.23
2018-05-16T16:25:23.052Z,17.37
2018-05-16T16:27:50.602Z,17.87
2018-05-16T16:30:18.906Z,18.37
2018-05-16T16:32:46.458Z,17.87
2018-05-16T16:35:14.021Z,17.63
2018-05-16T16:37:41.782Z,18.00
2018-05-16T16:40:09.537Z,18.83
2018-05-16T16:42:38.239Z,18.50
2018-05-16T16:45:05.786Z,18.27
2018-05-16T16:47:33.353Z,18.90
2018-05-16T16:50:00.932Z,20.43
2018-05-16T16:52:28.526Z,20.60
2018-05-16T16:54:56.091Z,21.17
2018-05-16T16:57:23.829Z,21.03
2018-05-16T16:59:51.414Z,20.20
2018-05-16T17:02:18.999Z,19.60
2018-05-16T17:04:46.526Z,21.37
2018-05-16T17:07:14.327Z,20.40
2018-05-16T17:09:42.363Z,19.50
2018-05-16T17:12:10.878Z,20.30
2018-05-16T17:14:38.540Z,19.97
2018-05-16T17:17:06.103Z,19.17
2018-05-16T17:19:33.684Z,19.27
2018-05-16T17:22:01.281Z,20.93
2018-05-16T17:24:28.790Z,19.70
2018-05-16T17:26:56.445Z,20.03
2018-05-16T17:29:24.010Z,20.13
2018-05-16T17:31:52.507Z,20.20
2018-05-16T17:34:20.315Z,18.80
2018-05-16T17:36:48.332Z,21.53
2018-05-16T17:39:15.913Z,21.03
2018-05-16T17:41:43.525Z,20.20
2018-05-16T17:44:11.535Z,19.60
2018-05-16T17:46:40.253Z,19.03
2018-05-16T17:49:11.608Z,18.77
2018-05-16T17:51:39.268Z,20.10
2018-05-16T17:54:09.649Z,20.60
2018-05-16T17:56:37.293Z,20.50
2018-05-16T17:59:04.852Z,18.70
2018-05-16T18:01:32.480Z,20.53
2018-05-16T18:04:00.242Z,18.77
2018-05-16T18:06:27.834Z,20.13
2018-05-16T18:08:55.459Z,20.00
2018-05-16T18:11:24.909Z,20.10
2018-05-16T18:14:05.191Z,19.63
2018-05-16T18:19:37.128Z,18.83
2018-05-16T18:22:04.997Z,20.07
2018-05-16T18:24:32.916Z,20.50
2018-05-16T18:27:01.717Z,20.03
2018-05-16T18:29:29.317Z,20.37
2018-05-16T18:31:56.912Z,20.37
2018-05-16T18:34:24.494Z,20.07
2018-05-16T18:36:52.155Z,21.10
2018-05-16T18:39:19.811Z,20.77
2018-05-16T18:41:47.310Z,21.27
2018-05-16T18:44:15.630Z,19.80
2018-05-16T18:46:43.823Z,20.87
2018-05-16T18:49:11.398Z,21.47
2018-05-16T18:51:40.059Z,21.03
2018-05-16T18:54:07.888Z,22.20
2018-05-16T18:56:35.537Z,21.83
2018-05-16T18:59:03.230Z,21.73
2018-05-16T19:01:30.822Z,22.60
2018-05-16T19:03:58.388Z,21.47
2018-05-16T19:06:26.004Z,23.73
2018-05-16T19:08:53.598Z,23.63
2018-05-16T19:11:21.077Z,22.20
2018-05-16T19:13:48.682Z,24.53
2018-05-16T19:16:16.315Z,22.47
2018-05-16T19:18:43.855Z,23.70
2018-05-16T19:21:11.579Z,24.90
2018-05-16T19:23:39.259Z,23.83
2018-05-16T19:26:06.846Z,25.67
2018-05-16T19:28:34.569Z,25.33
2018-05-16T19:31:02.107Z,25.77
2018-05-16T19:33:29.727Z,26.83
2018-05-16T19:35:57.391Z,25.50
2018-05-16T19:38:25.026Z,26.47
2018-05-16T19:40:52.832Z,26.27
2018-05-16T19:43:20.316Z,25.37
2018-05-16T19:45:47.821Z,26.87
2018-05-16T19:48:15.376Z,26.87
2018-05-16T19:50:43.152Z,27.20
2018-05-16T19:53:10.691Z,28.10
2018-05-16T19:55:38.216Z,27.93
2018-05-16T19:58:05.774Z,28.47
2018-05-16T20:00:33.381Z,29.90
2018-05-16T20:03:00.946Z,29.00
2018-05-16T20:05:28.813Z,30.30
2018-05-16T20:07:56.541Z,31.23
2018-05-16T20:10:24.111Z,31.63
2018-05-16T20:12:51.659Z,30.27
2018-05-16T20:15:19.640Z,31.90
2018-05-16T20:17:47.804Z,31.53
2018-05-16T20:20:15.398Z,33.23
2018-05-16T20:22:43.057Z,33.40
2018-05-16T20:25:11.007Z,31.83
2018-05-16T20:27:38.529Z,34.00
2018-05-16T20:30:06.329Z,30.37
2018-05-16T20:32:33.980Z,29.87
2018-05-16T20:35:01.520Z,30.90
2018-05-16T20:37:29.090Z,27.43
2018-05-16T20:39:56.664Z,28.77
2018-05-16T20:42:24.108Z,27.63
2018-05-16T20:44:51.628Z,27.83
2018-05-16T20:47:19.162Z,27.47
2018-05-16T20:49:46.732Z,26.40
2018-05-16T20:52:14.260Z,26.20
2018-05-16T20:54:41.815Z,24.17
2018-05-16T20:57:09.324Z,23.37
2018-05-16T20:59:36.852Z,23.50
2018-05-16T21:02:04.593Z,21.00
2018-05-16T21:04:32.169Z,19.47
2018-05-16T21:06:59.701Z,21.13
2018-05-16T21:09:27.327Z,19.40
2018-05-16T21:11:54.924Z,18.50
2018-05-16T21:14:23.872Z,18.13
2018-05-16T21:16:51.468Z,16.93
2018-05-16T21:19:19.001Z,16.97
2018-05-16T21:21:46.599Z,17.00
2018-05-16T21:24:14.184Z,15.27
2018-05-16T21:26:41.738Z,15.30
2018-05-16T21:29:09.260Z,15.10
2018-05-16T21:31:36.775Z,15.10
2018-05-16T21:34:04.759Z,15.13
2018-05-16T21:36:32.388Z,14.80
2018-05-16T21:39:00.046Z,14.20
2018-05-16T21:41:27.632Z,14.00
2018-05-16T21:43:55.279Z,13.57
2018-05-16T21:46:22.816Z,14.43
2018-05-16T21:48:50.368Z,14.20
2018-05-16T21:51:17.899Z,13.23
2018-05-16T21:53:45.471Z,12.80
2018-05-16T21:56:12.968Z,12.43
2018-05-16T21:58:40.469Z,12.47
2018-05-16T22:01:07.984Z,12.20
2018-05-16T22:03:35.633Z,12.63
2018-05-16T22:06:03.307Z,11.70
2018-05-16T22:08:30.825Z,11.50
2018-05-16T22:10:58.339Z,11.73
2018-05-16T22:13:25.899Z,10.70
2018-05-16T22:15:53.745Z,11.23
2018-05-16T22:18:21.292Z,10.63
2018-05-16T22:20:48.884Z,10.60
2018-05-16T22:23:16.385Z,10.70
2018-05-16T22:25:43.980Z,10.20
2018-05-16T22:28:11.559Z,11.23
2018-05-16T22:30:44.640Z,10.40
2018-05-16T22:33:17.806Z,9.07
2018-05-16T22:35:50.953Z,10.87
2018-05-16T22:38:24.038Z,9.27
2018-05-16T22:40:56.999Z,9.97
2018-05-16T22:43:24.549Z,9.90
2018-05-16T22:45:54.844Z,10.10
2018-05-16T22:48:22.365Z,9.63
2018-05-16T22:50:49.909Z,8.67
2018-05-16T22:53:17.459Z,9.37
2018-05-16T22:55:44.999Z,9.83
2018-05-16T22:58:12.495Z,7.90
2018-05-16T23:00:39.997Z,8.43
2018-05-16T23:03:07.528Z,7.97
2018-05-16T23:05:35.033Z,9.17
2018-05-16T23:08:02.555Z,8.87
2018-05-16T23:10:30.065Z,8.43
2018-05-16T23:12:57.624Z,7.37
2018-05-16T23:15:25.164Z,8.03
2018-05-16T23:17:52.725Z,8.53
2018-05-16T23:20:20.214Z,8.60
2018-05-16T23:22:47.738Z,8.07
2018-05-16T23:25:15.267Z,7.43
2018-05-16T23:27:42.798Z,7.77
2018-05-16T23:30:10.373Z,7.43
2018-05-16T23:32:37.865Z,7.53
2018-05-16T23:35:05.348Z,7.83
2018-05-16T23:37:32.887Z,7.97
2018-05-16T23:40:00.376Z,7.00
2018-05-16T23:42:27.957Z,7.27
2018-05-16T23:47:48.478Z,7.50
2018-05-16T23:50:15.970Z,7.13
2018-05-16T23:52:43.483Z,6.70
2018-05-16T23:55:10.986Z,7.43
2018-05-16T23:57:38.547Z,7.03
